Airport View

Enter AWOS ICAO identifier for current METAR.

ex. KFNL

KBVU 210035Z AUTO 00000KT 10SM CLR 27/M06 A2988 RMK AO2

21 Sep 2019 00:43

Frequency: 118.475

Phone: 702-293-1532

Other Area AWOS: KHND - KLAS - KLSV - KVGT

TAF KHND 202320Z 2100/2124 01006KT P6SM SKC FM210400 VRB05KT P6SM SKC FM211700 03006KT P6SM SKC